sensor_id;sensor_type;location;lat;lon;timestamp;temperature;humidity
14097;DHT22;7125;48.106;11.544;2022-12-08T00:00:09;1.40;99.90
14097;DHT22;7125;48.106;11.544;2022-12-08T00:02:38;1.40;99.90
14097;DHT22;7125;48.106;11.544;2022-12-08T00:05:09;1.40;99.90
14097;DHT22;7125;48.106;11.544;2022-12-08T00:07:55;1.40;99.90
14097;DHT22;7125;48.106;11.544;2022-12-08T00:10:41;1.40;99.90
14097;DHT22;7125;48.106;11.544;2022-12-08T00:13:08;1.40;99.90
14097;DHT22;7125;48.106;11.544;2022-12-08T00:15:35;1.40;99.90
14097;DHT22;7125;48.106;11.544;2022-12-08T00:18:02;1.40;99.90
14097;DHT22;7125;48.106;11.544;2022-12-08T00:20:29;1.40;99.90
14097;DHT22;7125;48.106;11.544;2022-12-08T00:22:57;1.40;99.90
14097;DHT22;7125;48.106;11.544;2022-12-08T00:25:24;1.40;99.90
14097;DHT22;7125;48.106;11.544;2022-12-08T00:27:51;1.40;99.90
14097;DHT22;7125;48.106;11.544;2022-12-08T00:30:18;1.40;99.90
14097;DHT22;7125;48.106;11.544;2022-12-08T00:32:45;1.40;99.90
14097;DHT22;7125;48.106;11.544;2022-12-08T00:35:12;1.40;99.90
14097;DHT22;7125;48.106;11.544;2022-12-08T00:37:40;1.40;99.90
14097;DHT22;7125;48.106;11.544;2022-12-08T00:40:10;1.40;99.90
14097;DHT22;7125;48.106;11.544;2022-12-08T00:42:36;1.40;99.90
14097;DHT22;7125;48.106;11.544;2022-12-08T00:45:04;1.40;99.90
14097;DHT22;7125;48.106;11.544;2022-12-08T00:47:31;1.40;99.90
14097;DHT22;7125;48.106;11.544;2022-12-08T00:49:58;1.40;99.90
14097;DHT22;7125;48.106;11.544;2022-12-08T00:52:25;1.40;99.90
14097;DHT22;7125;48.106;11.544;2022-12-08T00:54:52;1.40;99.90
14097;DHT22;7125;48.106;11.544;2022-12-08T00:57:20;1.40;99.90
14097;DHT22;7125;48.106;11.544;2022-12-08T00:59:47;1.40;99.90
14097;DHT22;7125;48.106;11.544;2022-12-08T01:02:14;1.30;99.90
14097;DHT22;7125;48.106;11.544;2022-12-08T01:04:41;1.30;99.90
14097;DHT22;7125;48.106;11.544;2022-12-08T01:07:08;1.30;99.90
14097;DHT22;7125;48.106;11.544;2022-12-08T01:09:35;1.30;99.90
14097;DHT22;7125;48.106;11.544;2022-12-08T01:12:04;1.30;99.90
14097;DHT22;7125;48.106;11.544;2022-12-08T01:14:32;1.30;99.90
14097;DHT22;7125;48.106;11.544;2022-12-08T01:16:59;1.30;99.90
14097;DHT22;7125;48.106;11.544;2022-12-08T01:19:26;1.30;99.90
14097;DHT22;7125;48.106;11.544;2022-12-08T01:21:53;1.30;99.90
14097;DHT22;7125;48.106;11.544;2022-12-08T01:24:20;1.30;99.90
14097;DHT22;7125;48.106;11.544;2022-12-08T01:26:48;1.30;99.90
14097;DHT22;7125;48.106;11.544;2022-12-08T01:29:16;1.30;99.90
14097;DHT22;7125;48.106;11.544;2022-12-08T01:31:44;1.30;99.90
14097;DHT22;7125;48.106;11.544;2022-12-08T01:34:11;1.30;99.90
14097;DHT22;7125;48.106;11.544;2022-12-08T01:36:38;1.30;99.90
14097;DHT22;7125;48.106;11.544;2022-12-08T01:39:06;1.30;99.90
14097;DHT22;7125;48.106;11.544;2022-12-08T01:41:35;1.30;99.90
14097;DHT22;7125;48.106;11.544;2022-12-08T01:47:10;1.20;99.90
14097;DHT22;7125;48.106;11.544;2022-12-08T01:49:37;1.30;99.90
14097;DHT22;7125;48.106;11.544;2022-12-08T01:52:09;1.30;99.90
14097;DHT22;7125;48.106;11.544;2022-12-08T01:54:45;1.20;99.90
14097;DHT22;7125;48.106;11.544;2022-12-08T01:57:16;1.20;99.90
14097;DHT22;7125;48.106;11.544;2022-12-08T01:59:49;1.30;99.90
14097;DHT22;7125;48.106;11.544;2022-12-08T02:02:19;1.20;99.90
14097;DHT22;7125;48.106;11.544;2022-12-08T02:04:46;1.20;99.90
14097;DHT22;7125;48.106;11.544;2022-12-08T02:07:15;1.20;99.90
14097;DHT22;7125;48.106;11.544;2022-12-08T02:09:43;1.20;99.90
14097;DHT22;7125;48.106;11.544;2022-12-08T02:12:11;1.20;99.90
14097;DHT22;7125;48.106;11.544;2022-12-08T02:14:38;1.10;99.90
14097;DHT22;7125;48.106;11.544;2022-12-08T02:17:14;1.10;99.90
14097;DHT22;7125;48.106;11.544;2022-12-08T02:20:06;1.10;99.90
14097;DHT22;7125;48.106;11.544;2022-12-08T02:22:45;1.10;99.90
14097;DHT22;7125;48.106;11.544;2022-12-08T02:25:17;1.00;99.90
14097;DHT22;7125;48.106;11.544;2022-12-08T02:27:56;1.00;99.90
14097;DHT22;7125;48.106;11.544;2022-12-08T02:30:26;0.90;99.90
14097;DHT22;7125;48.106;11.544;2022-12-08T02:33:27;0.90;99.90
14097;DHT22;7125;48.106;11.544;2022-12-08T02:36:04;0.80;99.90
14097;DHT22;7125;48.106;11.544;2022-12-08T02:38:44;0.90;99.90
14097;DHT22;7125;48.106;11.544;2022-12-08T02:41:30;0.80;99.90
14097;DHT22;7125;48.106;11.544;2022-12-08T02:44:07;0.80;99.90
14097;DHT22;7125;48.106;11.544;2022-12-08T02:46:39;0.80;99.90
14097;DHT22;7125;48.106;11.544;2022-12-08T02:49:08;0.70;99.90
14097;DHT22;7125;48.106;11.544;2022-12-08T02:51:39;0.70;99.90
14097;DHT22;7125;48.106;11.544;2022-12-08T02:54:06;0.70;99.90
14097;DHT22;7125;48.106;11.544;2022-12-08T02:56:42;0.70;99.90
14097;DHT22;7125;48.106;11.544;2022-12-08T02:59:24;0.70;99.90
14097;DHT22;7125;48.106;11.544;2022-12-08T03:02:08;0.70;99.90
14097;DHT22;7125;48.106;11.544;2022-12-08T03:04:44;0.80;99.90
14097;DHT22;7125;48.106;11.544;2022-12-08T03:07:20;0.80;99.90
14097;DHT22;7125;48.106;11.544;2022-12-08T03:09:51;0.80;99.90
14097;DHT22;7125;48.106;11.544;2022-12-08T03:12:25;0.70;99.90
14097;DHT22;7125;48.106;11.544;2022-12-08T03:14:59;0.70;99.90
14097;DHT22;7125;48.106;11.544;2022-12-08T03:17:29;0.70;99.90
14097;DHT22;7125;48.106;11.544;2022-12-08T03:20:03;0.70;99.90
14097;DHT22;7125;48.106;11.544;2022-12-08T03:22:32;0.70;99.90
14097;DHT22;7125;48.106;11.544;2022-12-08T03:25:00;0.70;99.90
14097;DHT22;7125;48.106;11.544;2022-12-08T03:27:29;0.70;99.90
14097;DHT22;7125;48.106;11.544;2022-12-08T03:29:57;0.70;99.90
14097;DHT22;7125;48.106;11.544;2022-12-08T03:32:29;0.70;99.90
14097;DHT22;7125;48.106;11.544;2022-12-08T03:35:00;0.70;99.90
14097;DHT22;7125;48.106;11.544;2022-12-08T03:37:28;0.70;99.90
14097;DHT22;7125;48.106;11.544;2022-12-08T03:39:56;0.70;99.90
14097;DHT22;7125;48.106;11.544;2022-12-08T03:42:23;0.70;99.90
14097;DHT22;7125;48.106;11.544;2022-12-08T03:44:50;0.70;99.90
14097;DHT22;7125;48.106;11.544;2022-12-08T03:47:17;0.60;99.90
14097;DHT22;7125;48.106;11.544;2022-12-08T03:49:44;0.60;99.90
14097;DHT22;7125;48.106;11.544;2022-12-08T03:52:11;0.60;99.90
14097;DHT22;7125;48.106;11.544;2022-12-08T03:54:38;0.60;99.90
14097;DHT22;7125;48.106;11.544;2022-12-08T03:57:06;0.60;99.90
14097;DHT22;7125;48.106;11.544;2022-12-08T03:59:33;0.60;99.90
14097;DHT22;7125;48.106;11.544;2022-12-08T04:02:00;0.60;99.90
14097;DHT22;7125;48.106;11.544;2022-12-08T04:04:27;0.60;99.90
14097;DHT22;7125;48.106;11.544;2022-12-08T04:06:54;0.60;99.90
14097;DHT22;7125;48.106;11.544;2022-12-08T04:09:22;0.60;99.90
14097;DHT22;7125;48.106;11.544;2022-12-08T04:11:48;0.50;99.90
14097;DHT22;7125;48.106;11.544;2022-12-08T04:14:18;0.50;99.90
14097;DHT22;7125;48.106;11.544;2022-12-08T04:16:45;0.50;99.90
14097;DHT22;7125;48.106;11.544;2022-12-08T04:19:12;0.50;99.90
14097;DHT22;7125;48.106;11.544;2022-12-08T04:21:39;0.50;99.90
14097;DHT22;7125;48.106;11.544;2022-12-08T04:24:06;0.40;99.90
14097;DHT22;7125;48.106;11.544;2022-12-08T04:26:33;0.40;99.90
14097;DHT22;7125;48.106;11.544;2022-12-08T04:29:00;0.40;99.90
14097;DHT22;7125;48.106;11.544;2022-12-08T04:31:29;0.40;99.90
14097;DHT22;7125;48.106;11.544;2022-12-08T04:33:57;0.40;99.90
14097;DHT22;7125;48.106;11.544;2022-12-08T04:36:23;0.30;99.90
14097;DHT22;7125;48.106;11.544;2022-12-08T04:38:50;0.40;99.90
14097;DHT22;7125;48.106;11.544;2022-12-08T04:41:17;0.40;99.90
14097;DHT22;7125;48.106;11.544;2022-12-08T04:43:44;0.40;99.90
14097;DHT22;7125;48.106;11.544;2022-12-08T04:46:11;0.40;99.90
14097;DHT22;7125;48.106;11.544;2022-12-08T04:48:40;0.30;99.90
14097;DHT22;7125;48.106;11.544;2022-12-08T04:51:14;0.30;99.90
14097;DHT22;7125;48.106;11.544;2022-12-08T04:53:41;0.30;99.90
14097;DHT22;7125;48.106;11.544;2022-12-08T04:56:11;0.30;99.90
14097;DHT22;7125;48.106;11.544;2022-12-08T04:58:38;0.30;99.90
14097;DHT22;7125;48.106;11.544;2022-12-08T05:01:06;0.30;99.90
14097;DHT22;7125;48.106;11.544;2022-12-08T05:03:33;0.30;99.90
14097;DHT22;7125;48.106;11.544;2022-12-08T05:06:02;0.30;99.90
14097;DHT22;7125;48.106;11.544;2022-12-08T05:08:29;0.30;99.90
14097;DHT22;7125;48.106;11.544;2022-12-08T05:11:01;0.30;99.90
14097;DHT22;7125;48.106;11.544;2022-12-08T05:13:28;0.30;99.90
14097;DHT22;7125;48.106;11.544;2022-12-08T05:16:01;0.30;99.90
14097;DHT22;7125;48.106;11.544;2022-12-08T05:18:28;0.30;99.90
14097;DHT22;7125;48.106;11.544;2022-12-08T05:20:55;0.30;99.90
14097;DHT22;7125;48.106;11.544;2022-12-08T05:23:24;0.40;99.90
14097;DHT22;7125;48.106;11.544;2022-12-08T05:25:51;0.40;99.90
14097;DHT22;7125;48.106;11.544;2022-12-08T05:28:19;0.40;99.90
14097;DHT22;7125;48.106;11.544;2022-12-08T05:30:46;0.40;99.90
14097;DHT22;7125;48.106;11.544;2022-12-08T05:33:13;0.40;99.90
14097;DHT22;7125;48.106;11.544;2022-12-08T05:35:40;0.40;99.90
14097;DHT22;7125;48.106;11.544;2022-12-08T05:38:07;0.40;99.90
14097;DHT22;7125;48.106;11.544;2022-12-08T05:40:38;0.40;99.90
14097;DHT22;7125;48.106;11.544;2022-12-08T05:43:05;0.40;99.90
14097;DHT22;7125;48.106;11.544;2022-12-08T05:45:32;0.40;99.90
14097;DHT22;7125;48.106;11.544;2022-12-08T05:48:00;0.40;99.90
14097;DHT22;7125;48.106;11.544;2022-12-08T05:50:27;0.50;99.90
14097;DHT22;7125;48.106;11.544;2022-12-08T05:52:56;0.40;99.90
14097;DHT22;7125;48.106;11.544;2022-12-08T05:55:22;0.40;99.90
14097;DHT22;7125;48.106;11.544;2022-12-08T05:57:51;0.40;99.90
14097;DHT22;7125;48.106;11.544;2022-12-08T06:00:19;0.40;99.90
14097;DHT22;7125;48.106;11.544;2022-12-08T06:02:46;0.40;99.90
14097;DHT22;7125;48.106;11.544;2022-12-08T06:05:13;0.40;99.90
14097;DHT22;7125;48.106;11.544;2022-12-08T06:07:40;0.40;99.90
14097;DHT22;7125;48.106;11.544;2022-12-08T06:10:07;0.40;99.90
14097;DHT22;7125;48.106;11.544;2022-12-08T06:12:34;0.40;99.90
14097;DHT22;7125;48.106;11.544;2022-12-08T06:15:03;0.40;99.90
14097;DHT22;7125;48.106;11.544;2022-12-08T06:17:30;0.40;99.90
14097;DHT22;7125;48.106;11.544;2022-12-08T06:19:58;0.40;99.90
14097;DHT22;7125;48.106;11.544;2022-12-08T06:22:26;0.40;99.90
14097;DHT22;7125;48.106;11.544;2022-12-08T06:24:54;0.40;99.90
14097;DHT22;7125;48.106;11.544;2022-12-08T06:27:21;0.40;99.90
14097;DHT22;7125;48.106;11.544;2022-12-08T06:29:48;0.40;99.90
14097;DHT22;7125;48.106;11.544;2022-12-08T06:32:16;0.40;99.90
14097;DHT22;7125;48.106;11.544;2022-12-08T06:34:43;0.40;99.90
14097;DHT22;7125;48.106;11.544;2022-12-08T06:37:11;0.40;99.90
14097;DHT22;7125;48.106;11.544;2022-12-08T06:39:38;0.40;99.90
14097;DHT22;7125;48.106;11.544;2022-12-08T06:42:05;0.40;99.90
14097;DHT22;7125;48.106;11.544;2022-12-08T06:44:49;0.40;99.90
14097;DHT22;7125;48.106;11.544;2022-12-08T06:47:19;0.40;99.90
14097;DHT22;7125;48.106;11.544;2022-12-08T06:49:46;0.40;99.90
14097;DHT22;7125;48.106;11.544;2022-12-08T06:52:14;0.40;99.90
14097;DHT22;7125;48.106;11.544;2022-12-08T06:54:41;0.40;99.90
14097;DHT22;7125;48.106;11.544;2022-12-08T06:57:08;0.40;99.90
14097;DHT22;7125;48.106;11.544;2022-12-08T06:59:35;0.40;99.90
14097;DHT22;7125;48.106;11.544;2022-12-08T07:02:04;0.40;99.90
14097;DHT22;7125;48.106;11.544;2022-12-08T07:04:32;0.40;99.90
14097;DHT22;7125;48.106;11.544;2022-12-08T07:06:59;0.30;99.90
14097;DHT22;7125;48.106;11.544;2022-12-08T07:09:26;0.40;99.90
14097;DHT22;7125;48.106;11.544;2022-12-08T07:11:53;0.40;99.90
14097;DHT22;7125;48.106;11.544;2022-12-08T07:14:20;0.40;99.90
14097;DHT22;7125;48.106;11.544;2022-12-08T07:16:49;0.40;99.90
14097;DHT22;7125;48.106;11.544;2022-12-08T07:19:16;0.50;99.90
14097;DHT22;7125;48.106;11.544;2022-12-08T07:21:44;0.60;99.90
14097;DHT22;7125;48.106;11.544;2022-12-08T07:24:11;0.60;99.90
14097;DHT22;7125;48.106;11.544;2022-12-08T07:26:39;0.60;99.90
14097;DHT22;7125;48.106;11.544;2022-12-08T07:29:06;0.60;99.90
14097;DHT22;7125;48.106;11.544;2022-12-08T07:31:33;0.70;99.90
14097;DHT22;7125;48.106;11.544;2022-12-08T07:34:00;0.70;99.90
14097;DHT22;7125;48.106;11.544;2022-12-08T07:36:27;0.80;99.90
14097;DHT22;7125;48.106;11.544;2022-12-08T07:38:55;0.90;99.90
14097;DHT22;7125;48.106;11.544;2022-12-08T07:41:24;0.90;99.90
14097;DHT22;7125;48.106;11.544;2022-12-08T07:43:51;1.00;99.90
14097;DHT22;7125;48.106;11.544;2022-12-08T07:46:21;1.10;99.90
14097;DHT22;7125;48.106;11.544;2022-12-08T07:48:50;1.10;99.90
14097;DHT22;7125;48.106;11.544;2022-12-08T07:51:17;1.20;99.90
14097;DHT22;7125;48.106;11.544;2022-12-08T07:53:48;1.20;99.90
14097;DHT22;7125;48.106;11.544;2022-12-08T07:56:17;1.30;99.90
14097;DHT22;7125;48.106;11.544;2022-12-08T07:58:44;1.30;99.90
14097;DHT22;7125;48.106;11.544;2022-12-08T08:01:19;1.40;99.90
14097;DHT22;7125;48.106;11.544;2022-12-08T08:03:46;1.50;99.90
14097;DHT22;7125;48.106;11.544;2022-12-08T08:06:13;1.50;99.90
14097;DHT22;7125;48.106;11.544;2022-12-08T08:08:40;1.60;99.90
14097;DHT22;7125;48.106;11.544;2022-12-08T08:11:07;1.60;99.90
14097;DHT22;7125;48.106;11.544;2022-12-08T08:13:35;1.60;99.90
14097;DHT22;7125;48.106;11.544;2022-12-08T08:16:04;1.80;99.90
14097;DHT22;7125;48.106;11.544;2022-12-08T08:18:33;1.80;99.90
14097;DHT22;7125;48.106;11.544;2022-12-08T08:21:02;1.90;99.90
14097;DHT22;7125;48.106;11.544;2022-12-08T08:23:29;1.90;99.90
14097;DHT22;7125;48.106;11.544;2022-12-08T08:25:58;2.00;99.90
14097;DHT22;7125;48.106;11.544;2022-12-08T08:28:25;2.00;99.90
14097;DHT22;7125;48.106;11.544;2022-12-08T08:30:53;2.10;99.90
14097;DHT22;7125;48.106;11.544;2022-12-08T08:33:20;2.20;99.90
14097;DHT22;7125;48.106;11.544;2022-12-08T08:35:47;2.20;99.90
14097;DHT22;7125;48.106;11.544;2022-12-08T08:38:14;2.30;99.90
14097;DHT22;7125;48.106;11.544;2022-12-08T08:40:41;2.30;99.90
14097;DHT22;7125;48.106;11.544;2022-12-08T08:43:08;2.40;99.90
14097;DHT22;7125;48.106;11.544;2022-12-08T08:45:55;2.40;99.90
14097;DHT22;7125;48.106;11.544;2022-12-08T08:48:24;2.50;99.90
14097;DHT22;7125;48.106;11.544;2022-12-08T08:50:51;2.50;99.90
14097;DHT22;7125;48.106;11.544;2022-12-08T08:53:18;2.60;99.90
14097;DHT22;7125;48.106;11.544;2022-12-08T08:55:45;2.70;99.90
14097;DHT22;7125;48.106;11.544;2022-12-08T08:58:12;2.80;99.90
14097;DHT22;7125;48.106;11.544;2022-12-08T09:00:39;2.80;99.90
14097;DHT22;7125;48.106;11.544;2022-12-08T09:03:08;2.80;99.90
14097;DHT22;7125;48.106;11.544;2022-12-08T09:05:36;2.90;99.90
14097;DHT22;7125;48.106;11.544;2022-12-08T09:08:03;3.00;99.90
14097;DHT22;7125;48.106;11.544;2022-12-08T09:10:31;3.10;99.90
14097;DHT22;7125;48.106;11.544;2022-12-08T09:12:58;3.20;99.90
14097;DHT22;7125;48.106;11.544;2022-12-08T09:15:25;3.20;99.90
14097;DHT22;7125;48.106;11.544;2022-12-08T09:17:52;3.40;99.90
14097;DHT22;7125;48.106;11.544;2022-12-08T09:20:20;3.50;99.90
14097;DHT22;7125;48.106;11.544;2022-12-08T09:22:48;3.60;99.90
14097;DHT22;7125;48.106;11.544;2022-12-08T09:25:15;3.70;99.90
14097;DHT22;7125;48.106;11.544;2022-12-08T09:27:42;3.80;99.90
14097;DHT22;7125;48.106;11.544;2022-12-08T09:30:09;3.80;99.90
14097;DHT22;7125;48.106;11.544;2022-12-08T09:32:36;3.90;99.90
14097;DHT22;7125;48.106;11.544;2022-12-08T09:35:04;4.00;99.90
14097;DHT22;7125;48.106;11.544;2022-12-08T09:37:32;4.10;99.90
14097;DHT22;7125;48.106;11.544;2022-12-08T09:39:59;4.10;99.90
14097;DHT22;7125;48.106;11.544;2022-12-08T09:42:32;4.20;99.90
14097;DHT22;7125;48.106;11.544;2022-12-08T09:45:06;4.30;99.90
14097;DHT22;7125;48.106;11.544;2022-12-08T09:47:39;4.40;99.90
14097;DHT22;7125;48.106;11.544;2022-12-08T09:50:11;4.40;99.90
14097;DHT22;7125;48.106;11.544;2022-12-08T09:52:44;4.50;99.90
14097;DHT22;7125;48.106;11.544;2022-12-08T09:55:16;4.50;99.90
14097;DHT22;7125;48.106;11.544;2022-12-08T09:57:50;4.50;99.90
14097;DHT22;7125;48.106;11.544;2022-12-08T10:00:19;4.60;99.90
14097;DHT22;7125;48.106;11.544;2022-12-08T10:02:47;4.70;99.90
14097;DHT22;7125;48.106;11.544;2022-12-08T10:05:14;4.80;99.90
14097;DHT22;7125;48.106;11.544;2022-12-08T10:07:47;4.80;99.90
14097;DHT22;7125;48.106;11.544;2022-12-08T10:10:30;4.80;99.90
14097;DHT22;7125;48.106;11.544;2022-12-08T10:13:02;4.80;99.90
14097;DHT22;7125;48.106;11.544;2022-12-08T10:15:40;4.80;99.90
14097;DHT22;7125;48.106;11.544;2022-12-08T10:18:14;4.70;99.90
14097;DHT22;7125;48.106;11.544;2022-12-08T10:20:43;4.60;99.90
14097;DHT22;7125;48.106;11.544;2022-12-08T10:23:20;4.50;99.90
14097;DHT22;7125;48.106;11.544;2022-12-08T10:25:50;4.50;99.90
14097;DHT22;7125;48.106;11.544;2022-12-08T10:28:17;4.50;99.90
14097;DHT22;7125;48.106;11.544;2022-12-08T10:30:47;4.60;99.90
14097;DHT22;7125;48.106;11.544;2022-12-08T10:33:15;4.70;99.90
14097;DHT22;7125;48.106;11.544;2022-12-08T10:35:45;4.70;99.90
14097;DHT22;7125;48.106;11.544;2022-12-08T10:38:20;4.80;99.90
14097;DHT22;7125;48.106;11.544;2022-12-08T10:40:50;4.80;99.90
14097;DHT22;7125;48.106;11.544;2022-12-08T10:43:20;4.90;99.90
14097;DHT22;7125;48.106;11.544;2022-12-08T10:45:48;4.80;99.90
14097;DHT22;7125;48.106;11.544;2022-12-08T10:48:18;4.80;99.90
14097;DHT22;7125;48.106;11.544;2022-12-08T10:50:46;4.80;99.90
14097;DHT22;7125;48.106;11.544;2022-12-08T10:53:22;4.80;99.90
14097;DHT22;7125;48.106;11.544;2022-12-08T10:55:52;4.90;99.90
14097;DHT22;7125;48.106;11.544;2022-12-08T10:58:28;5.00;99.90
14097;DHT22;7125;48.106;11.544;2022-12-08T11:00:57;5.10;99.90
14097;DHT22;7125;48.106;11.544;2022-12-08T11:03:30;5.00;99.90
14097;DHT22;7125;48.106;11.544;2022-12-08T11:05:59;5.00;99.90
14097;DHT22;7125;48.106;11.544;2022-12-08T11:08:28;4.90;99.90
14097;DHT22;7125;48.106;11.544;2022-12-08T11:10:56;4.90;99.90
14097;DHT22;7125;48.106;11.544;2022-12-08T11:13:25;4.80;99.90
14097;DHT22;7125;48.106;11.544;2022-12-08T11:15:55;4.80;99.90
14097;DHT22;7125;48.106;11.544;2022-12-08T11:18:26;4.70;99.90
14097;DHT22;7125;48.106;11.544;2022-12-08T11:20:59;4.80;99.90
14097;DHT22;7125;48.106;11.544;2022-12-08T11:23:29;4.70;99.90
14097;DHT22;7125;48.106;11.544;2022-12-08T11:26:02;4.70;99.90
14097;DHT22;7125;48.106;11.544;2022-12-08T11:28:31;4.70;99.90
14097;DHT22;7125;48.106;11.544;2022-12-08T11:31:14;4.70;99.90
14097;DHT22;7125;48.106;11.544;2022-12-08T11:33:44;4.80;99.90
14097;DHT22;7125;48.106;11.544;2022-12-08T11:36:14;4.80;99.90
14097;DHT22;7125;48.106;11.544;2022-12-08T11:38:45;4.80;99.90
14097;DHT22;7125;48.106;11.544;2022-12-08T11:41:15;4.80;99.90
14097;DHT22;7125;48.106;11.544;2022-12-08T11:43:46;4.90;99.90
14097;DHT22;7125;48.106;11.544;2022-12-08T11:46:19;4.90;99.90
14097;DHT22;7125;48.106;11.544;2022-12-08T11:48:51;4.90;99.90
14097;DHT22;7125;48.106;11.544;2022-12-08T11:51:23;4.90;99.90
14097;DHT22;7125;48.106;11.544;2022-12-08T11:54:14;4.90;99.90
14097;DHT22;7125;48.106;11.544;2022-12-08T11:56:46;4.90;99.90
14097;DHT22;7125;48.106;11.544;2022-12-08T11:59:27;4.90;99.90
14097;DHT22;7125;48.106;11.544;2022-12-08T12:01:56;4.90;99.90
14097;DHT22;7125;48.106;11.544;2022-12-08T12:04:26;5.00;99.90
14097;DHT22;7125;48.106;11.544;2022-12-08T12:07:21;5.00;99.90
14097;DHT22;7125;48.106;11.544;2022-12-08T12:10:04;5.00;99.90
14097;DHT22;7125;48.106;11.544;2022-12-08T12:12:48;5.00;99.90
14097;DHT22;7125;48.106;11.544;2022-12-08T12:15:39;5.00;99.90
14097;DHT22;7125;48.106;11.544;2022-12-08T12:18:10;4.90;99.90
14097;DHT22;7125;48.106;11.544;2022-12-08T12:20:44;4.90;99.90
14097;DHT22;7125;48.106;11.544;2022-12-08T12:23:18;4.80;99.90
14097;DHT22;7125;48.106;11.544;2022-12-08T12:25:50;4.70;99.90
14097;DHT22;7125;48.106;11.544;2022-12-08T12:28:21;4.60;99.90
14097;DHT22;7125;48.106;11.544;2022-12-08T12:30:55;4.50;99.90
14097;DHT22;7125;48.106;11.544;2022-12-08T12:33:24;4.50;99.90
14097;DHT22;7125;48.106;11.544;2022-12-08T12:35:55;4.40;99.90
14097;DHT22;7125;48.106;11.544;2022-12-08T12:38:30;4.40;99.90
14097;DHT22;7125;48.106;11.544;2022-12-08T12:41:22;4.40;99.90
14097;DHT22;7125;48.106;11.544;2022-12-08T12:46:56;4.30;99.90
14097;DHT22;7125;48.106;11.544;2022-12-08T12:49:52;4.30;99.90
14097;DHT22;7125;48.106;11.544;2022-12-08T12:52:46;4.30;99.90
14097;DHT22;7125;48.106;11.544;2022-12-08T12:55:25;4.30;99.90
14097;DHT22;7125;48.106;11.544;2022-12-08T12:57:54;4.40;99.90
14097;DHT22;7125;48.106;11.544;2022-12-08T13:00:23;4.50;99.90
14097;DHT22;7125;48.106;11.544;2022-12-08T13:02:51;4.50;99.90
14097;DHT22;7125;48.106;11.544;2022-12-08T13:05:21;4.60;99.90
14097;DHT22;7125;48.106;11.544;2022-12-08T13:07:52;4.60;99.90
14097;DHT22;7125;48.106;11.544;2022-12-08T13:10:22;4.70;99.90
14097;DHT22;7125;48.106;11.544;2022-12-08T13:13:05;4.70;99.90
14097;DHT22;7125;48.106;11.544;2022-12-08T13:15:35;4.70;99.90
14097;DHT22;7125;48.106;11.544;2022-12-08T13:18:03;4.70;99.90
14097;DHT22;7125;48.106;11.544;2022-12-08T13:20:40;4.80;99.90
14097;DHT22;7125;48.106;11.544;2022-12-08T13:23:24;4.80;99.90
14097;DHT22;7125;48.106;11.544;2022-12-08T13:26:11;4.80;99.90
14097;DHT22;7125;48.106;11.544;2022-12-08T13:29:13;4.80;99.90
14097;DHT22;7125;48.106;11.544;2022-12-08T13:31:42;4.80;99.90
14097;DHT22;7125;48.106;11.544;2022-12-08T13:34:14;4.80;99.90
14097;DHT22;7125;48.106;11.544;2022-12-08T13:36:51;4.80;99.90
14097;DHT22;7125;48.106;11.544;2022-12-08T13:39:23;4.70;99.90
14097;DHT22;7125;48.106;11.544;2022-12-08T13:41:57;4.60;99.90
14097;DHT22;7125;48.106;11.544;2022-12-08T13:44:30;4.50;99.90
14097;DHT22;7125;48.106;11.544;2022-12-08T13:46:58;4.40;99.90
14097;DHT22;7125;48.106;11.544;2022-12-08T13:49:29;4.40;99.90
14097;DHT22;7125;48.106;11.544;2022-12-08T13:51:59;4.30;99.90
14097;DHT22;7125;48.106;11.544;2022-12-08T13:54:29;4.30;99.90
14097;DHT22;7125;48.106;11.544;2022-12-08T13:56:59;4.30;99.90
14097;DHT22;7125;48.106;11.544;2022-12-08T13:59:29;4.30;99.90
14097;DHT22;7125;48.106;11.544;2022-12-08T14:02:02;4.30;99.90
14097;DHT22;7125;48.106;11.544;2022-12-08T14:04:29;4.30;99.90
14097;DHT22;7125;48.106;11.544;2022-12-08T14:06:59;4.30;99.90
14097;DHT22;7125;48.106;11.544;2022-12-08T14:09:35;4.30;99.90
14097;DHT22;7125;48.106;11.544;2022-12-08T14:12:05;4.20;99.90
14097;DHT22;7125;48.106;11.544;2022-12-08T14:14:38;4.20;99.90
14097;DHT22;7125;48.106;11.544;2022-12-08T14:17:10;4.20;99.90
14097;DHT22;7125;48.106;11.544;2022-12-08T14:19:38;4.20;99.90
14097;DHT22;7125;48.106;11.544;2022-12-08T14:22:10;4.20;99.90
14097;DHT22;7125;48.106;11.544;2022-12-08T14:24:38;4.20;99.90
14097;DHT22;7125;48.106;11.544;2022-12-08T14:27:08;4.20;99.90
14097;DHT22;7125;48.106;11.544;2022-12-08T14:29:41;4.20;99.90
14097;DHT22;7125;48.106;11.544;2022-12-08T14:32:20;4.30;99.90
14097;DHT22;7125;48.106;11.544;2022-12-08T14:34:56;4.30;99.90
14097;DHT22;7125;48.106;11.544;2022-12-08T14:37:25;4.20;99.90
14097;DHT22;7125;48.106;11.544;2022-12-08T14:39:56;4.20;99.90
14097;DHT22;7125;48.106;11.544;2022-12-08T14:42:25;4.30;99.90
14097;DHT22;7125;48.106;11.544;2022-12-08T14:45:05;4.20;99.90
14097;DHT22;7125;48.106;11.544;2022-12-08T14:47:33;4.20;99.90
14097;DHT22;7125;48.106;11.544;2022-12-08T14:50:01;4.20;99.90
14097;DHT22;7125;48.106;11.544;2022-12-08T14:52:29;4.20;99.90
14097;DHT22;7125;48.106;11.544;2022-12-08T14:54:57;4.10;99.90
14097;DHT22;7125;48.106;11.544;2022-12-08T14:57:31;4.10;99.90
14097;DHT22;7125;48.106;11.544;2022-12-08T15:00:08;4.00;99.90
14097;DHT22;7125;48.106;11.544;2022-12-08T15:02:42;3.90;99.90
14097;DHT22;7125;48.106;11.544;2022-12-08T15:05:14;3.90;99.90
14097;DHT22;7125;48.106;11.544;2022-12-08T15:07:47;3.80;99.90
14097;DHT22;7125;48.106;11.544;2022-12-08T15:10:22;3.70;99.90
14097;DHT22;7125;48.106;11.544;2022-12-08T15:12:58;3.70;99.90
14097;DHT22;7125;48.106;11.544;2022-12-08T15:15:28;3.60;99.90
14097;DHT22;7125;48.106;11.544;2022-12-08T15:18:03;3.60;99.90
14097;DHT22;7125;48.106;11.544;2022-12-08T15:20:39;3.60;99.90
14097;DHT22;7125;48.106;11.544;2022-12-08T15:23:24;3.50;99.90
14097;DHT22;7125;48.106;11.544;2022-12-08T15:25:51;3.50;99.90
14097;DHT22;7125;48.106;11.544;2022-12-08T15:28:21;3.50;99.90
14097;DHT22;7125;48.106;11.544;2022-12-08T15:30:50;3.50;99.90
14097;DHT22;7125;48.106;11.544;2022-12-08T15:33:17;3.50;99.90
14097;DHT22;7125;48.106;11.544;2022-12-08T15:35:45;3.40;99.90
14097;DHT22;7125;48.106;11.544;2022-12-08T15:38:18;3.40;99.90
14097;DHT22;7125;48.106;11.544;2022-12-08T15:40:46;3.40;99.90
14097;DHT22;7125;48.106;11.544;2022-12-08T15:43:14;3.40;99.90
14097;DHT22;7125;48.106;11.544;2022-12-08T15:45:41;3.40;99.90
14097;DHT22;7125;48.106;11.544;2022-12-08T15:48:15;3.40;99.90
14097;DHT22;7125;48.106;11.544;2022-12-08T15:50:43;3.40;99.90
14097;DHT22;7125;48.106;11.544;2022-12-08T15:53:10;3.40;99.90
14097;DHT22;7125;48.106;11.544;2022-12-08T15:55:37;3.30;99.90
14097;DHT22;7125;48.106;11.544;2022-12-08T15:58:04;3.30;99.90
14097;DHT22;7125;48.106;11.544;2022-12-08T16:00:34;3.30;99.90
14097;DHT22;7125;48.106;11.544;2022-12-08T16:03:02;3.30;99.90
14097;DHT22;7125;48.106;11.544;2022-12-08T16:05:31;3.30;99.90
14097;DHT22;7125;48.106;11.544;2022-12-08T16:07:59;3.30;99.90
14097;DHT22;7125;48.106;11.544;2022-12-08T16:10:26;3.20;99.90